Time;durP1;ratioP1;P1;durP2;ratioP2;P2;SDS_P1;SDS_P2;PMS_P1;PMS_P2;Temp;Humidity;BMP_temperature;BMP_pressure;BME280_temperature;BME280_humidity;BME280_pressure;Samples;Min_cycle;Max_cycle;Signal;HPM_P1;HPM_P2
2024/04/06 00:01:02;;;;;;;3.03;2.23;;;16.40;99.90;;;;;;5071452;28;20472;-72
2024/04/06 00:03:28;;;;;;;3.33;2.17;;;16.40;99.90;;;;;;5071792;28;20799;-72
2024/04/06 00:05:55;;;;;;;1.93;1.83;;;16.40;99.90;;;;;;5071738;28;20466;-72
2024/04/06 00:08:20;;;;;;;3.13;2.70;;;16.40;99.90;;;;;;5070963;28;20474;-72
2024/04/06 00:10:49;;;;;;;2.70;2.50;;;16.40;99.90;;;;;;5073344;28;20964;-72
2024/04/06 00:13:15;;;;;;;3.30;2.60;;;16.40;99.90;;;;;;5074709;28;20485;-72
2024/04/06 00:15:41;;;;;;;2.73;2.53;;;16.40;99.90;;;;;;5075090;28;20462;-72
2024/04/06 00:18:07;;;;;;;2.63;2.40;;;16.40;99.90;;;;;;5074694;28;20504;-73
2024/04/06 00:20:36;;;;;;;2.13;2.00;;;16.40;99.90;;;;;;5067358;28;20450;-73
2024/04/06 00:23:03;;;;;;;2.17;1.97;;;16.40;99.90;;;;;;5074532;28;20466;-73
2024/04/06 00:25:36;;;;;;;3.40;2.10;;;16.40;99.90;;;;;;5075117;28;20758;-73
2024/04/06 00:28:03;;;;;;;2.63;2.37;;;16.50;99.90;;;;;;5074435;28;20462;-73
2024/04/06 00:30:30;;;;;;;2.10;2.00;;;16.50;99.90;;;;;;5075036;28;20461;-72
2024/04/06 00:32:56;;;;;;;2.53;2.33;;;16.50;99.90;;;;;;5074836;28;20526;-74
2024/04/06 00:35:23;;;;;;;3.10;2.27;;;16.50;99.90;;;;;;5074544;28;20466;-72
2024/04/06 00:37:50;;;;;;;2.67;2.37;;;16.50;99.90;;;;;;5074858;28;20807;-73
2024/04/06 00:40:17;;;;;;;2.70;2.50;;;16.50;99.90;;;;;;5074316;28;20469;-72
2024/04/06 00:42:44;;;;;;;2.80;2.20;;;16.50;99.90;;;;;;5075046;28;20553;-72
2024/04/06 00:45:12;;;;;;;2.57;2.37;;;16.50;99.90;;;;;;5074187;28;20545;-72
2024/04/06 00:47:38;;;;;;;2.93;2.70;;;16.50;99.90;;;;;;5074670;28;20463;-71
2024/04/06 00:50:07;;;;;;;4.10;2.83;;;16.40;99.90;;;;;;5074231;28;20497;-72
2024/04/06 00:52:33;;;;;;;2.63;2.43;;;16.40;99.90;;;;;;5074467;28;20462;-72
2024/04/06 00:55:00;;;;;;;2.83;2.63;;;16.40;99.90;;;;;;5074505;28;20468;-72
2024/04/06 00:57:26;;;;;;;4.90;2.20;;;16.40;99.90;;;;;;5074080;28;20481;-72
2024/04/06 00:59:58;;;;;;;4.20;2.33;;;16.40;99.90;;;;;;5074715;28;20458;-72
2024/04/06 01:02:26;;;;;;;1.93;1.63;;;16.40;99.90;;;;;;5073992;28;20474;-72
2024/04/06 01:04:53;;;;;;;3.23;2.53;;;16.30;99.90;;;;;;5074695;28;20549;-72
2024/04/06 01:07:19;;;;;;;3.10;2.80;;;16.40;99.90;;;;;;5073510;28;20482;-72
2024/04/06 01:09:46;;;;;;;3.07;2.43;;;16.30;99.90;;;;;;5074173;28;20467;-72
2024/04/06 01:12:12;;;;;;;3.30;3.00;;;16.30;99.90;;;;;;5073889;28;20470;-72
2024/04/06 01:14:39;;;;;;;3.73;2.60;;;16.30;99.90;;;;;;5074213;28;20473;-72
2024/04/06 01:17:05;;;;;;;3.17;2.60;;;16.30;99.90;;;;;;5073966;28;20470;-72
2024/04/06 01:19:33;;;;;;;2.60;2.40;;;16.30;99.90;;;;;;5073681;28;21151;-72
2024/04/06 01:21:59;;;;;;;4.50;4.10;;;16.20;99.90;;;;;;5073617;28;20467;-73
2024/04/06 01:24:28;;;;;;;5.67;4.20;;;16.20;99.90;;;;;;5073623;28;20484;-73
2024/04/06 01:26:55;;;;;;;4.67;4.27;;;16.20;99.90;;;;;;5073884;28;20493;-73
2024/04/06 01:29:23;;;;;;;4.00;3.70;;;16.20;99.90;;;;;;5054865;28;20858;-73
2024/04/06 01:31:49;;;;;;;4.07;3.77;;;16.20;99.90;;;;;;5053935;28;20475;-73
2024/04/06 01:34:16;;;;;;;3.70;3.40;;;16.20;99.90;;;;;;5053415;28;20475;-73
2024/04/06 01:36:42;;;;;;;2.80;2.60;;;16.20;99.90;;;;;;5053762;28;20812;-73
2024/04/06 01:39:09;;;;;;;3.50;3.20;;;16.10;99.90;;;;;;5053404;28;20466;-73
2024/04/06 01:41:37;;;;;;;3.50;2.83;;;16.10;99.90;;;;;;5053721;28;20455;-73
2024/04/06 01:44:04;;;;;;;3.57;2.63;;;16.10;99.90;;;;;;5053514;28;20476;-73
2024/04/06 01:46:31;;;;;;;2.93;2.17;;;16.10;99.90;;;;;;5052591;28;20490;-73
2024/04/06 01:48:59;;;;;;;2.50;2.30;;;16.10;99.90;;;;;;5051992;28;20474;-73
2024/04/06 01:51:25;;;;;;;3.10;2.90;;;16.10;99.90;;;;;;5052512;28;20950;-73
2024/04/06 01:53:52;;;;;;;3.40;3.10;;;16.10;99.90;;;;;;5053124;28;20467;-73
2024/04/06 01:56:18;;;;;;;3.00;2.70;;;16.10;99.90;;;;;;5052376;28;20808;-73
2024/04/06 01:58:47;;;;;;;2.60;2.40;;;16.10;99.90;;;;;;5053496;28;20467;-73
2024/04/06 02:01:21;;;;;;;4.37;3.30;;;16.10;99.90;;;;;;5052905;28;20493;-74
2024/04/06 02:03:48;;;;;;;3.47;2.53;;;16.10;99.90;;;;;;5053321;28;20458;-73
2024/04/06 02:06:14;;;;;;;3.13;2.80;;;16.20;99.90;;;;;;5052627;28;20474;-73
2024/04/06 02:08:41;;;;;;;2.33;2.23;;;16.20;99.90;;;;;;5053032;28;20463;-73
2024/04/06 02:11:07;;;;;;;4.23;2.87;;;16.20;99.90;;;;;;5053037;28;20467;-73
2024/04/06 02:13:34;;;;;;;2.77;2.57;;;16.20;99.90;;;;;;5052708;28;20837;-72
2024/04/06 02:16:01;;;;;;;2.70;2.50;;;16.20;99.90;;;;;;5052966;28;20470;-72
2024/04/06 02:18:28;;;;;;;3.90;2.53;;;16.30;99.90;;;;;;5052352;28;20973;-73
2024/04/06 02:20:54;;;;;;;3.10;2.90;;;16.30;99.90;;;;;;5053047;28;20463;-73
2024/04/06 02:23:21;;;;;;;2.40;2.30;;;16.30;99.90;;;;;;5052361;28;20463;-73
2024/04/06 02:25:47;;;;;;;2.60;2.40;;;16.30;99.90;;;;;;5052906;28;20459;-73
2024/04/06 02:28:14;;;;;;;2.80;2.53;;;16.40;99.90;;;;;;5052276;28;20474;-73
2024/04/06 02:30:40;;;;;;;3.10;2.83;;;16.40;99.90;;;;;;5052841;28;20470;-73
2024/04/06 02:33:08;;;;;;;3.73;2.97;;;16.40;99.90;;;;;;5051952;28;20542;-73
2024/04/06 02:35:34;;;;;;;3.33;2.80;;;16.40;99.90;;;;;;5052529;28;20827;-73
2024/04/06 02:38:02;;;;;;;3.10;2.80;;;16.40;99.90;;;;;;5052766;28;20455;-73
2024/04/06 02:40:28;;;;;;;2.73;2.27;;;16.40;99.90;;;;;;5052339;28;20281;-73
2024/04/06 02:42:55;;;;;;;2.80;2.60;;;16.40;99.90;;;;;;5052944;28;20957;-73
2024/04/06 02:45:20;;;;;;;2.40;2.20;;;16.40;99.90;;;;;;5051953;28;20474;-73
2024/04/06 02:47:47;;;;;;;2.10;1.90;;;16.50;99.90;;;;;;5052657;28;21003;-73
2024/04/06 02:50:15;;;;;;;3.20;2.60;;;16.50;99.90;;;;;;5052256;28;20471;-73
2024/04/06 02:52:42;;;;;;;2.60;2.40;;;16.40;99.90;;;;;;5052253;28;20490;-74
2024/04/06 02:55:08;;;;;;;5.93;2.30;;;16.40;99.90;;;;;;5052434;28;20467;-73
2024/04/06 02:57:35;;;;;;;3.30;2.93;;;16.40;99.90;;;;;;5051740;28;20478;-73
2024/04/06 03:00:01;;;;;;;2.80;2.50;;;16.40;99.90;;;;;;5052277;28;20470;-73
2024/04/06 03:02:28;;;;;;;4.03;2.50;;;16.40;99.90;;;;;;5052035;28;20469;-73
2024/04/06 03:04:54;;;;;;;2.80;1.80;;;16.40;99.90;;;;;;5052397;28;20474;-72
2024/04/06 03:07:22;;;;;;;2.53;2.33;;;16.40;99.90;;;;;;5051467;28;20805;-72
2024/04/06 03:09:48;;;;;;;3.27;2.20;;;16.30;99.90;;;;;;5052443;28;20463;-73
2024/04/06 03:12:16;;;;;;;3.70;3.20;;;16.40;99.90;;;;;;5052048;28;20518;-73
2024/04/06 03:14:42;;;;;;;2.13;1.93;;;16.30;99.90;;;;;;5052061;28;20455;-73
2024/04/06 03:17:09;;;;;;;2.67;2.27;;;16.30;99.90;;;;;;5052042;28;20471;-72
2024/04/06 03:19:34;;;;;;;2.30;2.10;;;16.30;99.90;;;;;;5051544;28;20468;-73
2024/04/06 03:22:01;;;;;;;13.63;9.00;;;16.30;99.90;;;;;;5051618;28;20979;-73
2024/04/06 03:24:29;;;;;;;9.07;6.60;;;16.30;99.90;;;;;;5051238;28;20490;-73
2024/04/06 03:26:58;;;;;;;5.20;4.70;;;16.30;99.90;;;;;;5051629;28;20463;-73
2024/04/06 03:29:24;;;;;;;3.33;3.10;;;16.30;99.90;;;;;;5050734;28;20471;-73
2024/04/06 03:31:59;;;;;;;4.90;2.73;;;16.30;99.90;;;;;;5051987;28;20776;-73
2024/04/06 03:34:24;;;;;;;4.57;3.03;;;16.30;99.90;;;;;;5051462;28;20471;-73
2024/04/06 03:36:52;;;;;;;2.67;2.47;;;16.30;99.90;;;;;;5051999;28;21010;-74
2024/04/06 03:39:19;;;;;;;2.87;2.07;;;16.30;99.90;;;;;;5051835;28;20986;-73
2024/04/06 03:41:47;;;;;;;2.33;2.20;;;16.30;99.90;;;;;;5051699;28;20471;-73
2024/04/06 03:44:14;;;;;;;2.60;2.20;;;16.30;99.90;;;;;;5052777;28;20467;-73
2024/04/06 03:46:40;;;;;;;2.70;2.10;;;16.30;99.90;;;;;;5055539;28;20478;-73
2024/04/06 03:49:07;;;;;;;3.77;2.07;;;16.30;99.90;;;;;;5055035;28;20467;-73
2024/04/06 03:51:33;;;;;;;2.27;2.17;;;16.30;99.90;;;;;;5055506;28;20467;-73
2024/04/06 03:54:00;;;;;;;2.00;1.90;;;16.30;99.90;;;;;;5055536;28;20810;-73
2024/04/06 03:56:26;;;;;;;2.50;2.30;;;16.30;99.90;;;;;;5055110;28;20466;-72
2024/04/06 03:58:54;;;;;;;3.57;2.23;;;16.30;99.90;;;;;;5055879;28;20777;-73
2024/04/06 04:01:20;;;;;;;2.40;2.20;;;16.30;99.90;;;;;;5055567;28;20462;-72
2024/04/06 04:03:47;;;;;;;6.30;2.67;;;16.30;99.90;;;;;;5055140;28;20447;-73
2024/04/06 04:06:13;;;;;;;3.23;2.57;;;16.30;99.90;;;;;;5055557;28;20546;-73
2024/04/06 04:08:40;;;;;;;2.40;2.20;;;16.30;99.90;;;;;;5054887;28;20493;-73
2024/04/06 04:11:08;;;;;;;2.33;2.13;;;16.30;99.90;;;;;;5055446;28;20471;-73
2024/04/06 04:13:35;;;;;;;2.50;2.40;;;16.30;99.90;;;;;;5055046;28;20961;-73
2024/04/06 04:16:04;;;;;;;2.50;1.97;;;16.30;99.90;;;;;;5055324;28;20463;-72
2024/04/06 04:18:31;;;;;;;3.20;2.53;;;16.30;99.90;;;;;;5055097;28;20475;-72
2024/04/06 04:20:57;;;;;;;3.00;2.03;;;16.30;99.90;;;;;;5055280;28;20467;-73
2024/04/06 04:23:23;;;;;;;3.87;2.40;;;16.30;99.90;;;;;;5055204;28;20803;-72
2024/04/06 04:25:49;;;;;;;2.17;1.97;;;16.30;99.90;;;;;;5055055;28;20465;-72
2024/04/06 04:28:16;;;;;;;4.13;2.30;;;16.30;99.90;;;;;;5055119;28;20467;-72
2024/04/06 04:30:42;;;;;;;2.47;2.27;;;16.30;99.90;;;;;;5054621;28;20474;-72
2024/04/06 04:33:10;;;;;;;2.13;1.93;;;16.20;99.90;;;;;;5055052;28;20467;-72
2024/04/06 04:35:36;;;;;;;2.50;2.30;;;16.20;99.90;;;;;;5054398;28;20479;-72
2024/04/06 04:38:04;;;;;;;2.80;2.43;;;16.20;99.90;;;;;;5055089;28;20477;-72
2024/04/06 04:40:29;;;;;;;2.30;1.90;;;16.20;99.90;;;;;;5054624;28;20466;-72
2024/04/06 04:42:56;;;;;;;2.50;2.17;;;16.20;99.90;;;;;;5054998;28;20460;-73
2024/04/06 04:45:23;;;;;;;2.30;2.10;;;16.20;99.90;;;;;;5055030;28;20463;-73
2024/04/06 04:47:49;;;;;;;3.43;2.00;;;16.20;99.90;;;;;;5054383;28;20467;-72
2024/04/06 04:50:17;;;;;;;2.03;1.90;;;16.20;99.90;;;;;;5054433;28;20510;-72
2024/04/06 04:52:43;;;;;;;2.43;2.20;;;16.20;99.90;;;;;;5054263;28;20468;-73
2024/04/06 04:55:10;;;;;;;4.37;2.20;;;16.10;99.90;;;;;;5054563;28;20463;-72
2024/04/06 04:57:36;;;;;;;2.60;2.40;;;16.20;99.90;;;;;;5053673;28;20798;-72
2024/04/06 05:00:04;;;;;;;2.33;2.07;;;16.10;99.90;;;;;;5054514;28;20475;-73
2024/04/06 05:02:30;;;;;;;2.60;2.40;;;16.10;99.90;;;;;;5054145;28;20460;-73
2024/04/06 05:04:56;;;;;;;2.67;2.47;;;16.10;99.90;;;;;;5054236;28;20499;-73
2024/04/06 05:07:24;;;;;;;4.07;2.70;;;16.10;99.90;;;;;;5054284;28;20476;-73
2024/04/06 05:09:53;;;;;;;2.60;2.40;;;16.10;99.90;;;;;;5054003;28;20525;-73
2024/04/06 05:12:19;;;;;;;3.60;2.83;;;16.10;99.90;;;;;;5054387;28;20537;-73
2024/04/06 05:14:46;;;;;;;3.27;2.70;;;16.00;99.90;;;;;;5053817;28;20467;-72
2024/04/06 05:17:12;;;;;;;2.87;2.57;;;16.00;99.90;;;;;;5054150;28;20475;-73
2024/04/06 05:19:39;;;;;;;4.53;2.47;;;16.10;99.90;;;;;;5053918;28;20474;-73
2024/04/06 05:22:05;;;;;;;2.53;2.30;;;16.10;99.90;;;;;;5054009;28;20474;-73
2024/04/06 05:24:33;;;;;;;2.57;2.37;;;16.10;99.90;;;;;;5053748;28;20466;-72
2024/04/06 05:26:59;;;;;;;2.53;2.33;;;16.10;99.90;;;;;;5054275;28;20478;-73
2024/04/06 05:29:26;;;;;;;3.27;2.27;;;16.10;99.90;;;;;;5053789;28;20964;-72
2024/04/06 05:31:56;;;;;;;2.83;2.63;;;16.20;99.90;;;;;;5053512;28;20459;-73
2024/04/06 05:34:23;;;;;;;3.57;2.47;;;16.20;99.90;;;;;;5053901;28;20474;-72
2024/04/06 05:36:50;;;;;;;2.33;1.80;;;16.20;99.90;;;;;;5053290;28;20467;-72
2024/04/06 05:39:17;;;;;;;2.57;2.37;;;16.30;99.90;;;;;;5053968;28;21099;-71
2024/04/06 05:41:44;;;;;;;3.43;2.73;;;16.30;99.90;;;;;;5053333;28;20546;-71
2024/04/06 05:44:11;;;;;;;5.30;2.40;;;16.30;99.90;;;;;;5053639;28;20808;-72
2024/04/06 05:46:38;;;;;;;3.20;2.40;;;16.40;99.90;;;;;;5053189;28;20811;-73
2024/04/06 05:49:05;;;;;;;2.60;2.23;;;16.40;99.90;;;;;;5053711;28;20459;-73
2024/04/06 05:51:34;;;;;;;3.37;3.00;;;16.40;99.90;;;;;;5052480;28;20903;-73
2024/04/06 05:54:02;;;;;;;2.90;2.70;;;16.50;99.90;;;;;;5053241;28;20444;-73
2024/04/06 05:56:30;;;;;;;2.67;2.47;;;16.50;99.90;;;;;;5053481;28;20479;-72
2024/04/06 05:58:57;;;;;;;2.83;2.47;;;16.50;99.90;;;;;;5052896;28;20486;-72
2024/04/06 06:01:24;;;;;;;3.77;2.90;;;16.50;99.90;;;;;;5053350;28;20471;-72
2024/04/06 06:03:50;;;;;;;2.90;2.70;;;16.50;99.90;;;;;;5052845;28;20475;-72
2024/04/06 06:06:17;;;;;;;3.67;3.37;;;16.60;99.90;;;;;;5053394;28;20540;-74
2024/04/06 06:08:43;;;;;;;3.23;2.80;;;16.60;99.90;;;;;;5051738;28;20478;-73
2024/04/06 06:11:10;;;;;;;4.70;3.77;;;16.60;99.90;;;;;;5053121;28;20463;-72
2024/04/06 06:13:36;;;;;;;4.57;4.17;;;16.60;99.90;;;;;;5052947;28;20490;-73
2024/04/06 06:16:05;;;;;;;4.43;4.03;;;16.60;99.90;;;;;;5052912;28;20463;-73
2024/04/06 06:18:38;;;;;;;6.27;4.03;;;16.70;99.90;;;;;;5052973;28;20476;-74
2024/04/06 06:21:06;;;;;;;4.13;3.73;;;16.70;99.90;;;;;;5052646;28;20467;-74
2024/04/06 06:23:32;;;;;;;4.70;4.30;;;16.70;99.90;;;;;;5053036;28;20474;-74
2024/04/06 06:25:59;;;;;;;4.30;3.53;;;16.80;99.90;;;;;;5052413;28;20465;-73
2024/04/06 06:28:25;;;;;;;4.80;3.63;;;16.80;99.90;;;;;;5052598;28;20471;-72
2024/04/06 06:30:52;;;;;;;4.90;3.67;;;16.90;99.90;;;;;;5051041;28;20970;-73
2024/04/06 06:33:21;;;;;;;4.90;4.40;;;16.90;99.90;;;;;;5052836;28;20467;-73
2024/04/06 06:35:53;;;;;;;4.90;4.47;;;16.90;99.90;;;;;;5052397;28;20546;-73
2024/04/06 06:38:19;;;;;;;7.37;3.87;;;16.90;99.90;;;;;;5052665;28;20490;-72
2024/04/06 06:40:47;;;;;;;4.17;3.13;;;16.90;99.90;;;;;;5052319;28;20463;-72
2024/04/06 06:43:13;;;;;;;3.90;3.47;;;17.00;99.90;;;;;;5052430;28;20466;-73
2024/04/06 06:45:40;;;;;;;4.23;3.20;;;17.00;99.90;;;;;;5052725;28;20455;-73
2024/04/06 06:48:09;;;;;;;3.47;3.17;;;17.10;99.90;;;;;;5052021;28;20467;-73
2024/04/06 06:50:39;;;;;;;2.43;2.20;;;17.00;99.90;;;;;;5052458;28;20471;-73
2024/04/06 06:53:04;;;;;;;2.60;2.40;;;17.10;99.90;;;;;;5052104;28;20475;-73
2024/04/06 06:55:32;;;;;;;4.07;2.50;;;17.10;99.90;;;;;;5052550;28;20467;-73
2024/04/06 06:57:58;;;;;;;2.87;2.20;;;17.10;99.90;;;;;;5051654;28;20471;-74
2024/04/06 07:00:32;;;;;;;5.47;2.83;;;17.20;99.90;;;;;;5052602;28;20995;-73
2024/04/06 07:02:58;;;;;;;4.00;2.33;;;17.30;99.90;;;;;;5052018;28;20459;-72
2024/04/06 07:05:25;;;;;;;4.10;3.20;;;17.40;99.90;;;;;;5052274;28;20801;-72
2024/04/06 07:07:55;;;;;;;2.70;2.50;;;17.40;99.90;;;;;;5051820;28;20475;-73
2024/04/06 07:10:22;;;;;;;3.27;2.90;;;17.50;99.90;;;;;;5051929;28;20495;-72
2024/04/06 07:12:48;;;;;;;6.80;2.83;;;17.60;99.90;;;;;;5051772;28;20813;-72
2024/04/06 07:15:15;;;;;;;2.10;1.80;;;17.60;99.90;;;;;;5052380;28;20458;-74
2024/04/06 07:17:41;;;;;;;2.00;1.80;;;17.60;99.90;;;;;;5051839;28;20546;-73
2024/04/06 07:20:08;;;;;;;3.00;2.13;;;17.70;99.90;;;;;;5051441;28;20559;-73
2024/04/06 07:22:34;;;;;;;3.90;2.27;;;17.80;99.90;;;;;;5052247;28;20710;-72
2024/04/06 07:25:02;;;;;;;3.17;2.20;;;17.80;99.90;;;;;;5051605;28;20843;-72
2024/04/06 07:27:28;;;;;;;2.67;2.43;;;17.90;99.90;;;;;;5052180;28;20475;-73
2024/04/06 07:29:55;;;;;;;3.40;3.07;;;18.00;99.90;;;;;;5051597;28;20517;-73
2024/04/06 07:32:21;;;;;;;3.23;2.90;;;18.00;99.90;;;;;;5052204;28;20817;-72
2024/04/06 07:34:48;;;;;;;3.80;3.07;;;18.00;99.90;;;;;;5051691;28;20470;-73
2024/04/06 07:37:14;;;;;;;2.67;2.43;;;18.10;99.90;;;;;;5051812;28;20471;-72
2024/04/06 07:39:41;;;;;;;3.53;2.47;;;18.10;99.90;;;;;;5052114;28;20900;-73
2024/04/06 07:42:09;;;;;;;8.13;4.40;;;18.20;99.90;;;;;;5051826;28;20224;-73
2024/04/06 07:44:36;;;;;;;4.00;3.53;;;18.20;99.90;;;;;;5051858;28;21011;-73
2024/04/06 07:47:02;;;;;;;4.03;3.73;;;18.30;99.90;;;;;;5051353;28;20486;-73
2024/04/06 07:49:29;;;;;;;3.33;3.03;;;18.30;99.90;;;;;;5051928;28;20467;-73
2024/04/06 07:51:55;;;;;;;3.00;2.80;;;18.40;99.90;;;;;;5051356;28;20533;-73
2024/04/06 07:54:22;;;;;;;2.93;2.70;;;18.40;99.90;;;;;;5051757;28;20459;-73
2024/04/06 07:56:48;;;;;;;3.43;3.13;;;18.50;99.90;;;;;;5051479;28;20497;-72
2024/04/06 07:59:16;;;;;;;3.00;2.80;;;18.60;99.90;;;;;;5051631;28;20459;-73
2024/04/06 08:01:42;;;;;;;2.50;2.30;;;18.60;99.90;;;;;;5051821;28;20517;-72
2024/04/06 08:04:11;;;;;;;3.17;2.90;;;18.60;99.90;;;;;;5051191;28;20455;-73
2024/04/06 08:06:37;;;;;;;2.67;2.47;;;18.70;99.90;;;;;;5051541;28;20228;-73
2024/04/06 08:09:05;;;;;;;5.30;4.40;;;18.70;99.90;;;;;;5051289;28;20475;-73
2024/04/06 08:11:31;;;;;;;5.10;4.13;;;18.70;99.90;;;;;;5051692;28;20483;-72
2024/04/06 08:13:58;;;;;;;4.23;3.53;;;18.80;99.90;;;;;;5051088;28;20495;-73
2024/04/06 08:16:25;;;;;;;7.43;3.03;;;18.80;99.90;;;;;;5051612;28;20803;-73
2024/04/06 08:18:52;;;;;;;4.10;3.70;;;18.90;99.90;;;;;;5051152;28;20513;-73
2024/04/06 08:21:18;;;;;;;3.17;2.87;;;19.00;99.90;;;;;;5051729;28;20471;-73
2024/04/06 08:23:45;;;;;;;5.27;4.40;;;19.00;99.90;;;;;;5051792;28;20585;-73
2024/04/06 08:26:11;;;;;;;3.37;2.77;;;19.10;99.90;;;;;;5051128;28;20460;-73
2024/04/06 08:28:38;;;;;;;5.10;3.77;;;19.20;99.90;;;;;;5051386;28;20471;-73
2024/04/06 08:31:04;;;;;;;3.67;3.37;;;19.30;99.90;;;;;;5051780;28;20470;-73
2024/04/06 08:33:32;;;;;;;3.13;2.80;;;19.30;99.90;;;;;;5055004;28;20482;-73
2024/04/06 08:35:58;;;;;;;3.70;3.40;;;19.40;99.90;;;;;;5054759;28;20478;-73
2024/04/06 08:38:25;;;;;;;4.17;3.43;;;19.50;99.90;;;;;;5055128;28;20540;-73
2024/04/06 08:40:52;;;;;;;9.67;8.80;;;19.60;99.90;;;;;;5054500;28;20471;-72
2024/04/06 08:43:20;;;;;;;20.07;18.03;;;19.70;99.90;;;;;;5054998;28;20966;-73
2024/04/06 08:45:46;;;;;;;17.97;13.27;;;19.70;99.90;;;;;;5054728;28;20588;-72
2024/04/06 08:48:15;;;;;;;12.57;11.27;;;19.80;99.90;;;;;;5054197;28;20475;-73
2024/04/06 08:50:43;;;;;;;15.10;13.67;;;19.90;99.90;;;;;;5054944;28;20477;-73
2024/04/06 08:53:11;;;;;;;7.60;6.80;;;19.90;99.90;;;;;;5054217;28;20562;-73
2024/04/06 08:55:41;;;;;;;9.43;8.50;;;19.90;99.90;;;;;;5054610;28;20481;-73
2024/04/06 08:58:08;;;;;;;9.93;8.93;;;20.00;99.90;;;;;;5054199;28;20467;-73
2024/04/06 09:00:38;;;;;;;6.00;5.30;;;20.00;99.90;;;;;;5054534;28;20553;-73
2024/04/06 09:03:05;;;;;;;5.47;4.73;;;20.00;99.90;;;;;;5054081;28;20466;-73
2024/04/06 09:05:31;;;;;;;7.53;5.80;;;20.10;99.90;;;;;;5054760;28;20809;-73
2024/04/06 09:07:59;;;;;;;6.70;5.57;;;20.10;99.90;;;;;;5053749;28;20479;-73
2024/04/06 09:10:27;;;;;;;6.33;5.37;;;20.10;99.90;;;;;;5054413;28;20229;-73
2024/04/06 09:12:53;;;;;;;7.70;4.60;;;20.20;99.90;;;;;;5053979;28;20825;-73
2024/04/06 09:15:20;;;;;;;5.30;4.80;;;20.20;99.90;;;;;;5053510;28;20458;-73
2024/04/06 09:17:48;;;;;;;6.73;4.20;;;20.30;99.90;;;;;;5072482;28;20565;-74
2024/04/06 09:20:14;;;;;;;4.60;3.03;;;20.30;99.90;;;;;;5073033;28;20454;-71
2024/04/06 09:22:42;;;;;;;3.30;3.00;;;20.30;99.90;;;;;;5073954;28;20520;-72
2024/04/06 09:25:09;;;;;;;3.50;2.90;;;20.30;99.90;;;;;;5073373;28;20480;-73
2024/04/06 09:27:44;;;;;;;11.10;10.00;;;20.30;99.90;;;;;;5074397;28;20803;-71
2024/04/06 09:30:11;;;;;;;4.97;4.30;;;20.40;99.90;;;;;;5073524;28;20994;-72
2024/04/06 09:32:38;;;;;;;3.87;3.30;;;20.40;99.90;;;;;;5074086;28;20477;-72
2024/04/06 09:35:05;;;;;;;4.37;3.20;;;20.40;99.90;;;;;;5073458;28;20462;-72
2024/04/06 09:37:34;;;;;;;3.03;2.70;;;20.50;99.90;;;;;;5073610;28;20537;-72
2024/04/06 09:40:02;;;;;;;7.13;4.53;;;20.60;99.90;;;;;;5073144;28;20475;-72
2024/04/06 09:42:31;;;;;;;6.37;4.97;;;20.70;99.90;;;;;;5073610;28;20454;-72
2024/04/06 09:44:57;;;;;;;3.20;2.90;;;20.70;99.90;;;;;;5073356;28;20493;-72
2024/04/06 09:47:24;;;;;;;4.37;4.07;;;20.70;99.90;;;;;;5073712;28;20470;-72
2024/04/06 09:49:51;;;;;;;6.23;5.40;;;20.80;99.90;;;;;;5073514;28;20466;-72
2024/04/06 09:52:18;;;;;;;6.23;5.63;;;20.80;99.90;;;;;;5072976;28;20457;-72
2024/04/06 09:54:46;;;;;;;6.70;6.10;;;20.80;99.90;;;;;;5073342;28;20473;-72
2024/04/06 09:57:14;;;;;;;7.43;5.40;;;20.80;99.90;;;;;;5073124;28;21101;-73
2024/04/06 09:59:42;;;;;;;6.80;5.07;;;20.80;99.90;;;;;;5073424;28;20484;-73
2024/04/06 10:02:09;;;;;;;6.67;5.77;;;20.90;99.90;;;;;;5072799;28;20819;-72
2024/04/06 10:04:37;;;;;;;6.37;3.93;;;20.90;99.90;;;;;;5073360;28;20466;-72
2024/04/06 10:07:05;;;;;;;4.40;3.60;;;20.90;99.90;;;;;;5072638;28;20465;-72
2024/04/06 10:09:32;;;;;;;6.40;5.80;;;21.00;99.90;;;;;;5073030;28;20461;-72
2024/04/06 10:11:59;;;;;;;6.90;6.10;;;21.00;99.90;;;;;;5072654;28;20545;-72
2024/04/06 10:14:26;;;;;;;3.73;2.53;;;21.10;99.90;;;;;;5072862;28;20718;-72
2024/04/06 10:17:07;;;;;;;3.10;2.70;;;21.10;99.90;;;;;;5073207;28;20836;-72
2024/04/06 10:19:33;;;;;;;3.93;3.03;;;21.10;99.90;;;;;;5073558;28;20509;-72
2024/04/06 10:22:04;;;;;;;6.23;5.30;;;21.20;99.90;;;;;;5072481;28;20450;-72
2024/04/06 10:24:30;;;;;;;11.73;4.97;;;21.20;99.90;;;;;;5072797;28;20462;-72
2024/04/06 10:26:58;;;;;;;7.33;4.17;;;21.20;99.90;;;;;;5072745;28;20538;-72
2024/04/06 10:29:24;;;;;;;6.77;6.07;;;21.20;99.90;;;;;;5072673;28;20469;-72
2024/04/06 10:31:55;;;;;;;9.40;8.50;;;21.20;99.90;;;;;;5072246;28;20454;-72
2024/04/06 10:34:23;;;;;;;7.67;6.87;;;21.20;99.90;;;;;;5072729;28;20883;-72
2024/04/06 10:36:50;;;;;;;12.00;6.07;;;21.30;99.90;;;;;;5072144;28;21005;-72
2024/04/06 10:39:17;;;;;;;5.53;4.60;;;21.20;99.90;;;;;;5072847;28;20466;-72
2024/04/06 10:41:44;;;;;;;8.50;7.70;;;21.20;99.90;;;;;;5072215;28;20964;-72
2024/04/06 10:44:11;;;;;;;6.57;5.70;;;21.20;99.90;;;;;;5072401;28;20804;-73
2024/04/06 10:46:39;;;;;;;5.87;5.37;;;21.20;99.90;;;;;;5072445;28;20474;-72
2024/04/06 10:49:09;;;;;;;8.03;7.10;;;21.20;99.90;;;;;;5052245;28;20455;-72
2024/04/06 10:51:37;;;;;;;9.57;8.70;;;21.20;99.90;;;;;;5052489;28;20498;-72
2024/04/06 10:54:04;;;;;;;7.40;6.70;;;21.20;99.90;;;;;;5051651;28;20474;-73
2024/04/06 10:56:31;;;;;;;9.37;8.40;;;21.20;99.90;;;;;;5052475;28;20537;-72
2024/04/06 10:58:57;;;;;;;9.60;8.70;;;21.20;99.90;;;;;;5051925;28;20979;-72
2024/04/06 11:01:24;;;;;;;5.60;5.10;;;21.20;99.90;;;;;;5052410;28;20463;-73
2024/04/06 11:03:50;;;;;;;18.57;14.07;;;21.20;99.90;;;;;;5052069;28;20552;-73
2024/04/06 11:06:17;;;;;;;4.67;4.27;;;21.20;99.90;;;;;;5052270;28;20482;-72
2024/04/06 11:08:45;;;;;;;4.40;3.97;;;21.30;99.90;;;;;;5051815;28;20793;-72
2024/04/06 11:11:14;;;;;;;8.83;7.03;;;21.40;99.90;;;;;;5052101;28;20451;-72
2024/04/06 11:13:40;;;;;;;4.87;4.47;;;21.50;99.90;;;;;;5052019;28;20475;-72
2024/04/06 11:16:12;;;;;;;6.40;4.67;;;21.50;99.90;;;;;;5051820;28;20455;-72
2024/04/06 11:18:39;;;;;;;5.10;3.40;;;21.60;99.90;;;;;;5052275;28;20463;-72
2024/04/06 11:21:11;;;;;;;5.07;4.20;;;21.60;99.90;;;;;;5051986;28;20521;-72
2024/04/06 11:23:37;;;;;;;5.77;4.83;;;21.70;99.90;;;;;;5052355;28;20858;-72
2024/04/06 11:26:05;;;;;;;3.20;2.90;;;21.70;99.90;;;;;;5051931;28;20450;-72
2024/04/06 11:28:32;;;;;;;3.00;1.97;;;21.80;99.90;;;;;;5051915;28;20472;-72
2024/04/06 11:30:59;;;;;;;2.77;1.90;;;21.80;99.90;;;;;;5051684;28;20491;-72
2024/04/06 11:33:25;;;;;;;6.00;3.30;;;21.90;99.90;;;;;;5052107;28;20479;-73
2024/04/06 11:35:52;;;;;;;3.83;2.80;;;21.90;99.90;;;;;;5051690;28;20463;-72
2024/04/06 11:38:18;;;;;;;2.93;2.63;;;22.00;99.90;;;;;;5051888;28;20984;-72
2024/04/06 11:40:48;;;;;;;4.27;3.87;;;22.00;99.90;;;;;;5051804;28;20463;-73
2024/04/06 11:43:15;;;;;;;4.70;4.23;;;22.10;99.90;;;;;;5051842;28;20221;-73
2024/04/06 11:45:42;;;;;;;3.23;2.90;;;22.10;99.90;;;;;;5052017;28;20467;-73
2024/04/06 11:48:08;;;;;;;2.03;1.73;;;22.10;99.90;;;;;;5051553;28;20949;-73
2024/04/06 11:50:35;;;;;;;2.10;1.33;;;22.00;99.90;;;;;;5051782;28;20497;-73
2024/04/06 11:53:01;;;;;;;2.10;1.40;;;22.00;99.90;;;;;;5051424;28;20471;-73
2024/04/06 11:55:28;;;;;;;2.23;2.03;;;22.00;99.90;;;;;;5051892;28;20820;-73
2024/04/06 11:57:54;;;;;;;3.60;2.20;;;22.10;99.90;;;;;;5051137;28;20923;-73
2024/04/06 12:00:23;;;;;;;1.70;1.60;;;22.10;99.90;;;;;;5051852;28;20466;-73
2024/04/06 12:02:49;;;;;;;2.40;1.97;;;22.10;99.90;;;;;;5051523;28;20977;-73
2024/04/06 12:05:16;;;;;;;2.23;2.03;;;22.10;99.90;;;;;;5051704;28;20477;-73
2024/04/06 12:07:42;;;;;;;2.13;1.90;;;22.20;99.90;;;;;;5054941;28;20477;-73
2024/04/06 12:10:09;;;;;;;3.07;2.77;;;22.20;99.90;;;;;;5055012;28;20463;-73
2024/04/06 12:12:35;;;;;;;2.37;2.10;;;22.20;99.90;;;;;;5055665;28;20475;-73
2024/04/06 12:15:02;;;;;;;3.70;2.60;;;22.20;99.90;;;;;;5054732;28;20824;-73
2024/04/06 12:17:30;;;;;;;2.07;1.87;;;22.30;99.90;;;;;;5055304;28;20467;-73
2024/04/06 12:19:58;;;;;;;7.77;4.83;;;22.30;99.90;;;;;;5055162;28;20471;-73
2024/04/06 12:22:24;;;;;;;8.87;6.37;;;22.30;99.90;;;;;;5055380;28;20455;-73
2024/04/06 12:24:51;;;;;;;1.97;1.77;;;22.30;99.90;;;;;;5054962;28;20471;-74
2024/04/06 12:27:17;;;;;;;2.13;1.80;;;22.30;99.90;;;;;;5055440;28;20536;-73
2024/04/06 12:29:45;;;;;;;1.67;1.50;;;22.30;99.90;;;;;;5055223;28;20541;-73
2024/04/06 12:32:11;;;;;;;2.50;2.13;;;22.30;99.90;;;;;;5054728;28;20453;-74
2024/04/06 12:34:40;;;;;;;7.03;5.70;;;22.30;99.90;;;;;;5055073;28;20478;-74
2024/04/06 12:37:09;;;;;;;5.50;4.50;;;22.30;99.90;;;;;;5054516;28;20471;-73
2024/04/06 12:39:36;;;;;;;4.60;2.20;;;22.30;99.90;;;;;;5055013;28;20516;-74
2024/04/06 12:42:03;;;;;;;3.90;3.50;;;22.30;99.90;;;;;;5054581;28;20477;-73
2024/04/06 12:44:30;;;;;;;3.53;2.50;;;22.30;99.90;;;;;;5054911;28;20471;-73